Time;durP1;ratioP1;P1;durP2;ratioP2;P2;SDS_P1;SDS_P2;PMS_P1;PMS_P2;Temp;Humidity;BMP_temperature;BMP_pressure;BME280_temperature;BME280_humidity;BME280_pressure;Samples;Min_cycle;Max_cycle;Signal;HPM_P1;HPM_P2
2021/10/20 00:00:07;;;;;;;13.95;11.77;;;;;;;;;;4933232;28;20088;-63
2021/10/20 00:02:57;;;;;;;13.82;11.70;;;;;;;;;;4933349;28;20048;-63
2021/10/20 00:05:42;;;;;;;13.48;11.20;;;;;;;;;;4932964;28;20413;-63
2021/10/20 00:08:28;;;;;;;12.93;11.63;;;;;;;;;;4933045;28;20523;-63
2021/10/20 00:11:13;;;;;;;14.05;12.13;;;;;;;;;;4933320;28;20056;-63
2021/10/20 00:13:58;;;;;;;11.60;10.40;;;;;;;;;;4933102;28;20056;-63
2021/10/20 00:16:44;;;;;;;12.32;10.93;;;;;;;;;;4932947;28;20429;-63
2021/10/20 00:19:29;;;;;;;12.10;10.90;;;;;;;;;;4933314;28;20106;-63
2021/10/20 00:22:15;;;;;;;10.98;9.90;;;;;;;;;;4933078;28;20122;-63
2021/10/20 00:25:00;;;;;;;11.75;10.55;;;;;;;;;;4932547;28;20067;-63
2021/10/20 00:27:46;;;;;;;13.70;10.18;;;;;;;;;;4932934;28;20052;-63
2021/10/20 00:30:31;;;;;;;11.43;9.98;;;;;;;;;;4933093;28;20119;-64
2021/10/20 00:33:16;;;;;;;12.23;9.85;;;;;;;;;;4932866;28;20055;-63
2021/10/20 00:36:02;;;;;;;12.30;10.55;;;;;;;;;;4932967;28;20060;-63
2021/10/20 00:38:47;;;;;;;12.27;9.98;;;;;;;;;;4932937;28;20063;-63
2021/10/20 00:41:32;;;;;;;10.73;9.63;;;;;;;;;;4932713;28;20060;-63
2021/10/20 00:44:17;;;;;;;10.35;9.35;;;;;;;;;;4932192;28;20060;-63
2021/10/20 00:47:03;;;;;;;10.32;9.32;;;;;;;;;;4932520;28;20052;-63
2021/10/20 00:49:48;;;;;;;10.07;9.10;;;;;;;;;;4931786;28;20652;-63
2021/10/20 00:52:33;;;;;;;10.52;8.93;;;;;;;;;;4932536;28;20055;-63
2021/10/20 00:55:18;;;;;;;10.20;8.85;;;;;;;;;;4932348;28;20059;-63
2021/10/20 00:58:04;;;;;;;10.45;8.90;;;;;;;;;;4932330;28;20048;-63
2021/10/20 01:00:49;;;;;;;9.63;8.63;;;;;;;;;;4932372;28;20098;-63
2021/10/20 01:03:34;;;;;;;10.63;9.00;;;;;;;;;;4932365;28;20473;-63
2021/10/20 01:06:20;;;;;;;10.88;9.70;;;;;;;;;;4932270;28;20055;-63
2021/10/20 01:09:06;;;;;;;10.25;9.15;;;;;;;;;;4931878;28;20055;-63
2021/10/20 01:11:51;;;;;;;9.95;8.50;;;;;;;;;;4932228;28;20122;-63
2021/10/20 01:14:36;;;;;;;10.80;8.75;;;;;;;;;;4932118;28;20060;-63
2021/10/20 01:17:22;;;;;;;10.88;9.70;;;;;;;;;;4931214;28;20055;-63
2021/10/20 01:20:07;;;;;;;9.13;8.18;;;;;;;;;;4932334;28;20068;-64
2021/10/20 01:22:52;;;;;;;9.55;8.48;;;;;;;;;;4932306;28;20418;-63
2021/10/20 01:25:37;;;;;;;11.43;8.40;;;;;;;;;;4931701;28;20052;-63
2021/10/20 01:28:22;;;;;;;10.77;8.38;;;;;;;;;;4931456;28;20052;-63
2021/10/20 01:31:07;;;;;;;9.68;8.63;;;;;;;;;;4932072;28;20426;-63
2021/10/20 01:33:53;;;;;;;9.95;8.60;;;;;;;;;;4931795;28;20052;-63
2021/10/20 01:36:38;;;;;;;9.52;8.35;;;;;;;;;;4931927;28;20131;-63
2021/10/20 01:39:23;;;;;;;10.32;8.68;;;;;;;;;;4932100;28;20122;-63
2021/10/20 01:42:09;;;;;;;11.77;8.90;;;;;;;;;;4932039;28;20130;-63
2021/10/20 01:44:54;;;;;;;11.52;9.15;;;;;;;;;;4931728;28;20052;-63
2021/10/20 01:47:40;;;;;;;9.90;8.98;;;;;;;;;;4931845;28;20051;-64
2021/10/20 01:50:25;;;;;;;13.48;8.45;;;;;;;;;;4932071;28;20409;-63
2021/10/20 01:53:10;;;;;;;10.18;9.10;;;;;;;;;;4931964;28;20151;-63
2021/10/20 01:55:55;;;;;;;10.25;8.35;;;;;;;;;;4931793;28;20139;-63
2021/10/20 01:58:41;;;;;;;11.18;8.73;;;;;;;;;;4931842;28;20052;-63
2021/10/20 02:01:26;;;;;;;9.88;8.88;;;;;;;;;;4932022;28;20063;-63
2021/10/20 02:04:12;;;;;;;10.30;8.57;;;;;;;;;;4931651;28;20052;-63
2021/10/20 02:06:57;;;;;;;9.52;8.55;;;;;;;;;;4925220;28;20056;-63
2021/10/20 02:09:43;;;;;;;9.60;8.60;;;;;;;;;;4912577;29;20127;-63
2021/10/20 02:12:28;;;;;;;10.80;9.35;;;;;;;;;;4913806;29;20056;-63
2021/10/20 02:15:13;;;;;;;12.45;8.63;;;;;;;;;;4912366;28;20052;-64
2021/10/20 02:17:59;;;;;;;10.65;9.40;;;;;;;;;;4912332;28;20406;-63
2021/10/20 02:20:44;;;;;;;9.43;8.48;;;;;;;;;;4912756;28;20530;-63
2021/10/20 02:23:30;;;;;;;13.73;8.80;;;;;;;;;;4915705;28;20131;-63
2021/10/20 02:26:15;;;;;;;13.63;9.10;;;;;;;;;;4915440;28;20056;-63
2021/10/20 02:29:01;;;;;;;13.32;8.40;;;;;;;;;;4933618;29;20122;-63
2021/10/20 02:31:46;;;;;;;9.88;8.88;;;;;;;;;;4934886;28;20130;-63
2021/10/20 02:34:32;;;;;;;10.07;8.93;;;;;;;;;;4934275;28;20127;-64
2021/10/20 02:37:17;;;;;;;9.00;8.10;;;;;;;;;;4934575;28;20055;-63
2021/10/20 02:40:03;;;;;;;11.85;8.13;;;;;;;;;;4934351;28;20134;-63
2021/10/20 02:42:48;;;;;;;10.25;9.13;;;;;;;;;;4933368;28;20051;-64
2021/10/20 02:45:33;;;;;;;9.35;8.23;;;;;;;;;;4974125;22;20051;-57
2021/10/20 02:48:19;;;;;;;11.23;10.02;;;;;;;;;;4993722;28;20465;-58
2021/10/20 02:51:04;;;;;;;11.93;9.23;;;;;;;;;;4995232;28;20046;-58
2021/10/20 02:53:49;;;;;;;11.57;9.27;;;;;;;;;;4994858;28;20398;-58
2021/10/20 02:56:35;;;;;;;10.68;8.95;;;;;;;;;;4995282;28;20081;-59
2021/10/20 02:59:20;;;;;;;11.70;8.68;;;;;;;;;;4995169;28;20050;-58
2021/10/20 03:02:05;;;;;;;10.63;9.52;;;;;;;;;;4995260;28;20058;-59
2021/10/20 03:04:51;;;;;;;10.45;9.07;;;;;;;;;;4994840;28;20062;-59
2021/10/20 03:07:36;;;;;;;12.98;9.10;;;;;;;;;;4994933;28;20117;-58
2021/10/20 03:10:21;;;;;;;10.13;9.13;;;;;;;;;;4994822;28;20559;-60
2021/10/20 03:13:06;;;;;;;11.85;9.10;;;;;;;;;;4994961;28;20054;-58
2021/10/20 03:15:52;;;;;;;10.85;8.88;;;;;;;;;;4994870;28;20058;-58
2021/10/20 03:18:37;;;;;;;13.00;9.32;;;;;;;;;;4994976;28;20058;-60
2021/10/20 03:21:23;;;;;;;12.60;9.48;;;;;;;;;;4994867;28;20066;-58
2021/10/20 03:24:08;;;;;;;11.65;8.88;;;;;;;;;;4994476;28;20058;-59
2021/10/20 03:26:54;;;;;;;12.10;9.35;;;;;;;;;;4994669;28;20054;-60
2021/10/20 03:29:39;;;;;;;14.70;9.50;;;;;;;;;;4994692;28;20054;-58
2021/10/20 03:32:24;;;;;;;10.70;9.60;;;;;;;;;;4994065;28;20050;-59
2021/10/20 03:35:10;;;;;;;13.40;10.18;;;;;;;;;;4994192;28;20058;-60
2021/10/20 03:37:55;;;;;;;14.23;10.35;;;;;;;;;;4994565;28;20050;-59
2021/10/20 03:40:40;;;;;;;12.32;10.30;;;;;;;;;;4994432;28;20054;-58
2021/10/20 03:43:26;;;;;;;11.55;9.90;;;;;;;;;;4994265;28;20058;-59
2021/10/20 03:46:11;;;;;;;11.68;10.00;;;;;;;;;;4994283;28;20117;-59
2021/10/20 03:48:56;;;;;;;12.68;10.95;;;;;;;;;;4994132;28;20544;-59
2021/10/20 03:51:42;;;;;;;15.68;11.48;;;;;;;;;;4994111;28;20050;-58
2021/10/20 03:54:27;;;;;;;14.05;10.93;;;;;;;;;;4993781;28;20543;-57
2021/10/20 03:57:12;;;;;;;13.98;10.88;;;;;;;;;;4994041;28;20054;-59
2021/10/20 03:59:58;;;;;;;13.00;10.95;;;;;;;;;;4994134;28;20049;-58
2021/10/20 04:02:44;;;;;;;15.00;10.90;;;;;;;;;;4994309;28;20054;-58
2021/10/20 04:05:29;;;;;;;14.30;11.45;;;;;;;;;;4993532;28;20058;-59
2021/10/20 04:08:14;;;;;;;14.27;11.85;;;;;;;;;;4993753;28;20054;-60
2021/10/20 04:11:00;;;;;;;14.50;11.02;;;;;;;;;;4994015;28;20117;-58
2021/10/20 04:13:45;;;;;;;15.68;11.75;;;;;;;;;;4993757;28;20046;-58
2021/10/20 04:16:30;;;;;;;15.45;11.20;;;;;;;;;;4993510;28;20058;-61
2021/10/20 04:19:16;;;;;;;13.65;12.02;;;;;;;;;;4993792;28;20129;-59
2021/10/20 04:22:01;;;;;;;11.80;10.15;;;;;;;;;;4993660;28;20054;-58
2021/10/20 04:24:47;;;;;;;15.65;11.27;;;;;;;;;;4993211;28;20058;-60
2021/10/20 04:27:32;;;;;;;15.57;10.52;;;;;;;;;;4993720;28;20050;-59
2021/10/20 04:30:18;;;;;;;13.48;10.50;;;;;;;;;;4993537;28;20050;-59
2021/10/20 04:33:03;;;;;;;14.15;11.07;;;;;;;;;;4993539;28;20505;-60
2021/10/20 04:35:48;;;;;;;12.13;10.50;;;;;;;;;;4993287;28;20054;-59
2021/10/20 04:38:34;;;;;;;11.73;10.18;;;;;;;;;;4993507;28;20046;-58
2021/10/20 04:41:19;;;;;;;15.70;11.48;;;;;;;;;;4993304;28;20088;-60
2021/10/20 04:44:04;;;;;;;12.07;10.77;;;;;;;;;;4992749;28;20050;-58
2021/10/20 04:46:49;;;;;;;13.25;10.77;;;;;;;;;;4992779;28;20512;-62
2021/10/20 04:49:35;;;;;;;15.48;11.13;;;;;;;;;;4993222;28;20094;-62
2021/10/20 04:52:22;;;;;;;15.85;12.27;;;;;;;;;;4994406;28;20050;-63
2021/10/20 04:55:07;;;;;;;15.18;11.40;;;;;;;;;;4994247;28;20054;-61
2021/10/20 04:57:53;;;;;;;13.30;11.35;;;;;;;;;;4992940;28;20058;-62
2021/10/20 05:00:38;;;;;;;14.32;11.70;;;;;;;;;;4993144;28;20050;-61
2021/10/20 05:03:23;;;;;;;18.02;10.55;;;;;;;;;;4992973;28;20058;-62
2021/10/20 05:06:08;;;;;;;13.88;11.13;;;;;;;;;;4993009;28;20082;-62
2021/10/20 05:08:54;;;;;;;14.63;11.52;;;;;;;;;;4993082;28;20113;-62
2021/10/20 05:11:39;;;;;;;15.80;12.18;;;;;;;;;;4992970;28;20125;-62
2021/10/20 05:14:25;;;;;;;17.90;13.38;;;;;;;;;;4992600;28;20058;-62
2021/10/20 05:17:10;;;;;;;13.93;11.57;;;;;;;;;;4992637;28;20125;-61
2021/10/20 05:19:55;;;;;;;17.17;12.68;;;;;;;;;;4992837;28;20050;-61
2021/10/20 05:22:41;;;;;;;14.75;13.20;;;;;;;;;;4992672;28;20058;-62
2021/10/20 05:25:26;;;;;;;14.15;11.93;;;;;;;;;;4992387;28;20062;-62
2021/10/20 05:28:11;;;;;;;15.13;12.38;;;;;;;;;;4992879;28;20125;-62
2021/10/20 05:30:57;;;;;;;15.02;13.43;;;;;;;;;;4992666;28;20054;-62
2021/10/20 05:33:42;;;;;;;15.60;13.02;;;;;;;;;;4992454;28;20054;-62
2021/10/20 05:36:27;;;;;;;17.55;12.98;;;;;;;;;;4992662;28;20054;-61
2021/10/20 05:39:13;;;;;;;15.82;13.70;;;;;;;;;;4992697;28;20047;-62
2021/10/20 05:41:58;;;;;;;17.05;13.50;;;;;;;;;;4992472;28;20657;-62
2021/10/20 05:44:43;;;;;;;17.63;13.15;;;;;;;;;;4992401;28;20125;-62
2021/10/20 05:47:29;;;;;;;16.83;13.13;;;;;;;;;;4992381;28;20129;-62
2021/10/20 05:50:15;;;;;;;13.68;12.20;;;;;;;;;;4992362;28;20055;-62
2021/10/20 05:53:00;;;;;;;13.30;11.88;;;;;;;;;;4992651;28;20121;-61
2021/10/20 05:55:45;;;;;;;20.75;12.68;;;;;;;;;;4992628;28;20054;-61
2021/10/20 05:58:31;;;;;;;18.25;13.35;;;;;;;;;;4996213;28;20421;-63
2021/10/20 06:01:17;;;;;;;16.90;13.35;;;;;;;;;;4996430;28;20059;-62
2021/10/20 06:04:03;;;;;;;17.40;12.48;;;;;;;;;;4996172;28;20476;-61
2021/10/20 06:06:48;;;;;;;17.65;12.48;;;;;;;;;;4996059;28;20054;-62
2021/10/20 06:09:34;;;;;;;17.13;13.25;;;;;;;;;;4996259;28;20157;-64
2021/10/20 06:12:19;;;;;;;15.65;12.25;;;;;;;;;;4996012;28;20449;-61
2021/10/20 06:15:06;;;;;;;14.15;12.07;;;;;;;;;;4995708;28;20054;-62
2021/10/20 06:17:51;;;;;;;13.07;11.25;;;;;;;;;;4995986;28;20058;-62
2021/10/20 06:20:36;;;;;;;13.85;12.18;;;;;;;;;;4996079;28;20054;-61
2021/10/20 06:23:22;;;;;;;17.30;11.75;;;;;;;;;;4995921;28;20433;-62
2021/10/20 06:26:07;;;;;;;16.70;12.80;;;;;;;;;;4995797;28;20125;-63
2021/10/20 06:28:54;;;;;;;16.60;12.98;;;;;;;;;;4995964;28;20054;-61
2021/10/20 06:31:39;;;;;;;19.13;13.43;;;;;;;;;;4995615;28;20054;-61
2021/10/20 06:34:24;;;;;;;20.67;13.70;;;;;;;;;;4994972;28;20062;-62
2021/10/20 06:37:10;;;;;;;18.13;13.15;;;;;;;;;;4995519;28;20054;-63
2021/10/20 06:39:55;;;;;;;17.52;14.10;;;;;;;;;;4995521;28;20050;-62
2021/10/20 06:42:40;;;;;;;22.05;14.07;;;;;;;;;;4995533;28;20452;-62
2021/10/20 06:45:26;;;;;;;17.65;13.90;;;;;;;;;;4995243;28;20125;-64
2021/10/20 06:48:11;;;;;;;17.95;14.77;;;;;;;;;;4995615;28;20054;-62
2021/10/20 06:50:56;;;;;;;17.00;13.80;;;;;;;;;;4995198;28;20054;-62
2021/10/20 06:53:42;;;;;;;16.40;13.52;;;;;;;;;;4995157;28;20089;-62
2021/10/20 06:56:27;;;;;;;15.52;13.45;;;;;;;;;;4995207;28;20076;-62
2021/10/20 06:59:13;;;;;;;14.88;12.32;;;;;;;;;;4995159;28;20058;-62
2021/10/20 07:01:58;;;;;;;13.82;12.00;;;;;;;;;;4995238;28;20061;-63
2021/10/20 07:04:43;;;;;;;17.92;13.70;;;;;;;;;;4994844;28;20050;-61
2021/10/20 07:07:29;;;;;;;12.82;11.50;;;;;;;;;;4993695;28;20125;-62
2021/10/20 07:10:15;;;;;;;14.98;11.88;;;;;;;;;;4995165;28;20129;-62
2021/10/20 07:13:00;;;;;;;16.38;12.68;;;;;;;;;;4995029;28;20125;-62
2021/10/20 07:15:47;;;;;;;14.73;11.38;;;;;;;;;;4994797;28;20050;-61
2021/10/20 07:18:33;;;;;;;14.23;11.52;;;;;;;;;;4994719;28;20500;-62
2021/10/20 07:21:18;;;;;;;12.93;11.15;;;;;;;;;;4994827;28;20054;-61
2021/10/20 07:24:04;;;;;;;13.65;10.20;;;;;;;;;;4994438;28;20054;-62
2021/10/20 07:26:49;;;;;;;16.77;10.75;;;;;;;;;;4994668;28;20050;-64
2021/10/20 07:29:34;;;;;;;11.35;9.80;;;;;;;;;;4994685;28;20058;-63
2021/10/20 07:32:20;;;;;;;12.48;10.40;;;;;;;;;;4994493;28;20501;-63
2021/10/20 07:35:05;;;;;;;14.57;10.15;;;;;;;;;;4994484;28;20054;-63
2021/10/20 07:37:50;;;;;;;15.32;10.43;;;;;;;;;;4994455;28;20054;-63
2021/10/20 07:40:35;;;;;;;12.35;10.07;;;;;;;;;;4994358;28;20058;-62
2021/10/20 07:43:21;;;;;;;14.63;9.88;;;;;;;;;;4994308;28;20528;-63
2021/10/20 07:46:06;;;;;;;14.40;10.80;;;;;;;;;;4994290;28;20133;-62
2021/10/20 07:48:51;;;;;;;14.25;10.73;;;;;;;;;;4994165;28;20050;-63
2021/10/20 07:51:37;;;;;;;16.95;11.55;;;;;;;;;;4994468;28;20054;-62
2021/10/20 07:54:22;;;;;;;15.20;10.93;;;;;;;;;;4993815;28;20505;-62
2021/10/20 07:57:08;;;;;;;14.65;11.07;;;;;;;;;;4993982;28;20125;-63
2021/10/20 07:59:53;;;;;;;11.43;10.27;;;;;;;;;;4994188;28;20054;-63
2021/10/20 08:02:39;;;;;;;13.50;10.93;;;;;;;;;;4994040;28;20050;-62
2021/10/20 08:05:24;;;;;;;14.25;11.25;;;;;;;;;;4993687;28;20509;-61
2021/10/20 08:08:10;;;;;;;13.30;10.27;;;;;;;;;;4993955;28;20066;-62
2021/10/20 08:10:56;;;;;;;15.43;9.85;;;;;;;;;;4993919;28;20050;-64
2021/10/20 08:13:41;;;;;;;11.07;9.07;;;;;;;;;;4993598;28;20051;-62
2021/10/20 08:16:26;;;;;;;10.65;9.55;;;;;;;;;;4993831;28;20117;-62
2021/10/20 08:19:12;;;;;;;12.80;9.88;;;;;;;;;;4993590;28;20066;-64
2021/10/20 08:21:57;;;;;;;12.68;9.45;;;;;;;;;;4993711;28;20174;-61
2021/10/20 08:24:42;;;;;;;9.65;8.65;;;;;;;;;;4993277;28;20089;-63
2021/10/20 08:27:28;;;;;;;10.98;8.48;;;;;;;;;;4993509;28;20054;-62
2021/10/20 08:30:18;;;;;;;11.00;8.68;;;;;;;;;;4997420;28;20050;-64
2021/10/20 08:33:03;;;;;;;9.05;7.95;;;;;;;;;;4996835;28;20050;-64
2021/10/20 08:35:48;;;;;;;8.93;8.02;;;;;;;;;;4997312;28;20046;-63
2021/10/20 08:38:33;;;;;;;10.70;8.20;;;;;;;;;;4997649;28;20050;-64
2021/10/20 08:41:19;;;;;;;8.55;7.43;;;;;;;;;;4997520;28;20058;-64
2021/10/20 08:44:05;;;;;;;12.30;8.73;;;;;;;;;;4997340;28;20077;-64
2021/10/20 08:46:53;;;;;;;10.02;8.05;;;;;;;;;;4975890;23;20052;-62
2021/10/20 08:49:39;;;;;;;8.63;7.60;;;;;;;;;;4932397;28;20056;-63
2021/10/20 08:52:24;;;;;;;9.75;7.70;;;;;;;;;;4931823;29;20056;-62
2021/10/20 08:55:09;;;;;;;11.23;7.38;;;;;;;;;;4926662;28;20059;-63
2021/10/20 08:57:54;;;;;;;11.32;7.47;;;;;;;;;;4932280;29;20056;-63
2021/10/20 09:00:40;;;;;;;12.07;6.95;;;;;;;;;;4932739;28;20426;-64
2021/10/20 09:03:25;;;;;;;9.45;7.38;;;;;;;;;;4932506;28;20529;-65
2021/10/20 09:06:10;;;;;;;11.00;7.50;;;;;;;;;;4933285;28;20126;-66
2021/10/20 09:08:56;;;;;;;11.38;8.35;;;;;;;;;;4933536;28;20059;-65
2021/10/20 09:11:41;;;;;;;9.80;7.47;;;;;;;;;;4933468;28;20570;-65
2021/10/20 09:14:26;;;;;;;8.50;7.68;;;;;;;;;;4932139;29;20060;-66
2021/10/20 09:17:11;;;;;;;9.60;7.63;;;;;;;;;;4933518;28;20123;-65
2021/10/20 09:19:59;;;;;;;9.13;7.22;;;;;;;;;;4933378;28;20510;-66
2021/10/20 09:22:56;;;;;;;8.45;7.55;;;;;;;;;;4933513;28;20059;-65
2021/10/20 09:25:45;;;;;;;9.55;7.50;;;;;;;;;;4933029;28;20577;-66
2021/10/20 09:28:34;;;;;;;8.15;7.20;;;;;;;;;;4933206;28;20052;-65
2021/10/20 09:31:21;;;;;;;15.27;7.75;;;;;;;;;;4935295;28;20502;-64
2021/10/20 09:34:07;;;;;;;9.80;8.32;;;;;;;;;;4938227;28;20056;-64
2021/10/20 09:36:54;;;;;;;9.55;8.48;;;;;;;;;;4938449;28;20422;-64
2021/10/20 09:39:39;;;;;;;10.98;8.75;;;;;;;;;;4938151;28;20051;-63
2021/10/20 09:42:25;;;;;;;9.48;8.57;;;;;;;;;;4938387;28;20118;-64
2021/10/20 09:45:10;;;;;;;9.63;8.35;;;;;;;;;;4936897;29;20064;-63
2021/10/20 09:47:56;;;;;;;9.25;8.20;;;;;;;;;;4930888;28;20056;-64
2021/10/20 09:50:41;;;;;;;9.90;7.60;;;;;;;;;;4917658;29;20502;-63
2021/10/20 09:53:30;;;;;;;9.80;8.80;;;;;;;;;;4918086;29;20060;-64
2021/10/20 09:56:22;;;;;;;10.15;9.15;;;;;;;;;;4918090;29;20418;-64
2021/10/20 09:59:07;;;;;;;9.10;8.15;;;;;;;;;;4918399;29;20060;-63
2021/10/20 10:01:53;;;;;;;12.70;9.27;;;;;;;;;;4917023;29;20068;-63
2021/10/20 10:04:41;;;;;;;10.40;8.07;;;;;;;;;;4918013;29;20126;-63
2021/10/20 10:07:26;;;;;;;9.32;8.40;;;;;;;;;;4918208;29;20099;-64
2021/10/20 10:10:11;;;;;;;10.18;8.13;;;;;;;;;;4918300;29;20052;-64
2021/10/20 10:13:07;;;;;;;9.45;8.45;;;;;;;;;;4918349;29;20081;-63
2021/10/20 10:15:52;;;;;;;12.27;8.57;;;;;;;;;;4917448;29;20052;-63
2021/10/20 10:18:39;;;;;;;8.98;8.07;;;;;;;;;;4917451;29;20127;-64
2021/10/20 10:21:30;;;;;;;11.98;8.27;;;;;;;;;;4918092;29;20064;-64
2021/10/20 10:24:15;;;;;;;9.75;7.55;;;;;;;;;;4918266;29;20083;-63
2021/10/20 10:27:12;;;;;;;8.63;7.63;;;;;;;;;;4918435;29;20060;-63
2021/10/20 10:30:03;;;;;;;9.30;8.10;;;;;;;;;;4917993;29;20056;-63
2021/10/20 10:32:53;;;;;;;10.80;7.85;;;;;;;;;;4917903;29;20510;-63
2021/10/20 10:35:39;;;;;;;12.20;8.23;;;;;;;;;;4917818;29;20119;-63
2021/10/20 10:38:25;;;;;;;10.07;8.20;;;;;;;;;;4918316;29;20059;-63
2021/10/20 10:41:20;;;;;;;10.10;7.88;;;;;;;;;;4917387;29;20051;-63
2021/10/20 10:44:08;;;;;;;8.82;7.50;;;;;;;;;;4914417;29;20131;-63
2021/10/20 10:46:53;;;;;;;8.70;7.72;;;;;;;;;;4914742;29;20056;-63
2021/10/20 10:49:40;;;;;;;9.45;7.38;;;;;;;;;;4914426;29;20495;-63
2021/10/20 10:52:32;;;;;;;10.15;8.20;;;;;;;;;;4914549;29;20052;-63
2021/10/20 10:55:19;;;;;;;8.95;7.80;;;;;;;;;;4918928;29;20056;-65
2021/10/20 10:58:17;;;;;;;10.10;9.15;;;;;;;;;;4919452;29;20056;-67
2021/10/20 11:01:02;;;;;;;11.15;10.13;;;;;;;;;;4919332;29;20060;-66
2021/10/20 11:03:57;;;;;;;11.00;9.82;;;;;;;;;;4918147;29;20422;-66
2021/10/20 11:06:43;;;;;;;12.15;10.80;;;;;;;;;;4904726;29;20063;-66
2021/10/20 11:09:31;;;;;;;11.00;9.90;;;;;;;;;;4919359;29;20420;-64
2021/10/20 11:12:16;;;;;;;12.75;10.45;;;;;;;;;;4919024;29;20056;-67
2021/10/20 11:15:02;;;;;;;12.98;10.32;;;;;;;;;;4903923;29;20464;-68
2021/10/20 11:17:47;;;;;;;13.77;10.93;;;;;;;;;;4917209;29;20056;-69
2021/10/20 11:20:33;;;;;;;12.77;11.43;;;;;;;;;;4916871;29;20281;-69
2021/10/20 11:23:19;;;;;;;13.43;10.35;;;;;;;;;;4918415;29;20058;-69
2021/10/20 11:26:04;;;;;;;10.95;9.95;;;;;;;;;;4916916;29;20060;-69
2021/10/20 11:28:50;;;;;;;12.63;10.60;;;;;;;;;;4917201;29;20510;-69
2021/10/20 11:31:39;;;;;;;11.48;9.65;;;;;;;;;;4934768;28;20059;-69
2021/10/20 11:34:30;;;;;;;11.93;8.27;;;;;;;;;;4918948;29;20060;-69
2021/10/20 11:37:16;;;;;;;12.40;8.90;;;;;;;;;;4916287;29;20086;-69
2021/10/20 11:40:02;;;;;;;9.38;8.23;;;;;;;;;;4916205;29;20410;-69
2021/10/20 11:42:48;;;;;;;9.32;8.18;;;;;;;;;;4916080;29;20443;-69
2021/10/20 11:45:33;;;;;;;11.65;8.65;;;;;;;;;;4933921;29;20111;-69
2021/10/20 11:48:24;;;;;;;10.75;7.80;;;;;;;;;;4935174;28;20056;-69
2021/10/20 11:51:09;;;;;;;9.80;8.00;;;;;;;;;;4921433;29;20087;-68
2021/10/20 11:53:54;;;;;;;8.93;7.90;;;;;;;;;;4910011;29;20056;-69
2021/10/20 11:56:39;;;;;;;10.13;7.93;;;;;;;;;;4915561;29;20124;-69
2021/10/20 11:59:29;;;;;;;10.05;7.90;;;;;;;;;;4915427;29;20566;-69
2021/10/20 12:02:14;;;;;;;8.73;6.82;;;;;;;;;;4902606;29;20110;-68
2021/10/20 12:04:59;;;;;;;7.40;6.70;;;;;;;;;;4915342;29;20088;-68
2021/10/20 12:07:46;;;;;;;8.45;6.57;;;;;;;;;;4903281;29;20052;-68
2021/10/20 12:10:31;;;;;;;6.90;6.10;;;;;;;;;;4912568;29;20052;-69
2021/10/20 12:13:17;;;;;;;9.57;6.95;;;;;;;;;;4901462;29;20056;-69
2021/10/20 12:16:02;;;;;;;9.73;6.65;;;;;;;;;;4916214;29;20084;-68
2021/10/20 12:18:47;;;;;;;6.70;5.88;;;;;;;;;;4915178;29;20060;-69
2021/10/20 12:21:32;;;;;;;7.82;6.07;;;;;;;;;;4916406;29;20502;-69
2021/10/20 12:24:18;;;;;;;7.18;5.25;;;;;;;;;;4914680;29;20060;-68
2021/10/20 12:27:09;;;;;;;10.15;7.10;;;;;;;;;;4913687;29;20135;-69
2021/10/20 12:29:59;;;;;;;10.07;5.97;;;;;;;;;;4911925;29;20064;-69
2021/10/20 12:32:44;;;;;;;11.23;5.57;;;;;;;;;;4899114;29;20056;-69
2021/10/20 12:35:30;;;;;;;9.95;5.82;;;;;;;;;;4911683;29;20060;-69
2021/10/20 12:38:16;;;;;;;6.65;5.57;;;;;;;;;;4911818;29;20060;-69
2021/10/20 12:41:12;;;;;;;7.88;5.97;;;;;;;;;;4898684;29;20055;-69
2021/10/20 12:43:58;;;;;;;10.30;5.53;;;;;;;;;;4913019;29;20052;-69
2021/10/20 12:46:43;;;;;;;6.07;4.47;;;;;;;;;;4913128;29;20672;-69
2021/10/20 12:49:35;;;;;;;8.95;5.28;;;;;;;;;;4913101;29;20056;-68
2021/10/20 12:52:20;;;;;;;10.10;6.10;;;;;;;;;;4898414;29;20494;-69
2021/10/20 12:55:06;;;;;;;11.57;5.70;;;;;;;;;;4898179;29;20060;-69
2021/10/20 12:57:52;;;;;;;7.45;5.03;;;;;;;;;;4911455;29;20064;-69
2021/10/20 13:00:36;;;;;;;9.57;5.63;;;;;;;;;;4912904;29;20426;-69
2021/10/20 13:03:22;;;;;;;8.82;5.50;;;;;;;;;;4911941;29;20064;-69
2021/10/20 13:06:09;;;;;;;7.45;5.30;;;;;;;;;;4910398;29;20059;-69
2021/10/20 13:08:54;;;;;;;7.07;4.70;;;;;;;;;;4911739;29;20127;-69
2021/10/20 13:11:39;;;;;;;8.52;5.10;;;;;;;;;;4911332;29;20055;-69
2021/10/20 13:14:24;;;;;;;9.48;5.45;;;;;;;;;;4911571;29;20064;-69
2021/10/20 13:17:10;;;;;;;9.25;5.88;;;;;;;;;;4911031;29;20052;-68
2021/10/20 13:19:55;;;;;;;8.48;5.72;;;;;;;;;;4898319;29;20068;-69
2021/10/20 13:22:40;;;;;;;9.50;5.63;;;;;;;;;;4912607;29;20064;-69
2021/10/20 13:25:25;;;;;;;10.32;5.47;;;;;;;;;;4911005;29;20502;-69
2021/10/20 13:28:12;;;;;;;9.63;6.32;;;;;;;;;;4911570;29;20056;-69
2021/10/20 13:30:57;;;;;;;6.72;4.82;;;;;;;;;;4911031;29;20052;-68
2021/10/20 13:33:42;;;;;;;9.82;6.40;;;;;;;;;;4910565;29;20064;-69
2021/10/20 13:36:27;;;;;;;12.07;6.13;;;;;;;;;;4911356;29;20049;-69
2021/10/20 13:39:13;;;;;;;9.18;5.05;;;;;;;;;;4911359;28;20522;-68
2021/10/20 13:41:59;;;;;;;51.20;19.88;;;;;;;;;;4898341;29;20118;-69
2021/10/20 13:44:44;;;;;;;10.25;4.80;;;;;;;;;;4912425;29;20521;-69
2021/10/20 13:47:30;;;;;;;7.57;5.07;;;;;;;;;;4911642;29;20499;-69
2021/10/20 13:50:15;;;;;;;9.07;5.30;;;;;;;;;;4911259;28;20102;-69
2021/10/20 13:53:01;;;;;;;8.98;5.00;;;;;;;;;;4896978;29;20055;-69
2021/10/20 13:55:46;;;;;;;9.20;5.95;;;;;;;;;;4911117;28;20127;-69
2021/10/20 13:58:31;;;;;;;9.32;6.95;;;;;;;;;;4912184;29;20060;-70
2021/10/20 14:01:16;;;;;;;10.63;5.57;;;;;;;;;;4897999;29;20060;-69
2021/10/20 14:04:02;;;;;;;11.05;4.63;;;;;;;;;;4912451;29;20055;-69
2021/10/20 14:06:53;;;;;;;9.40;4.72;;;;;;;;;;4897896;29;20135;-69
2021/10/20 14:09:39;;;;;;;10.30;4.65;;;;;;;;;;4898722;29;20056;-69
2021/10/20 14:12:24;;;;;;;6.93;3.90;;;;;;;;;;4911803;29;20060;-69
2021/10/20 14:15:09;;;;;;;11.48;4.15;;;;;;;;;;4912269;29;20060;-69
2021/10/20 14:17:54;;;;;;;14.52;4.10;;;;;;;;;;4912577;29;20056;-69
2021/10/20 14:20:40;;;;;;;11.25;4.25;;;;;;;;;;4913900;29;20123;-69
2021/10/20 14:23:25;;;;;;;5.65;3.38;;;;;;;;;;4914087;29;20056;-68
2021/10/20 14:26:11;;;;;;;9.70;4.18;;;;;;;;;;4913914;29;20064;-69
2021/10/20 14:28:57;;;;;;;8.98;4.25;;;;;;;;;;4915390;29;20099;-69
2021/10/20 14:31:42;;;;;;;9.40;4.88;;;;;;;;;;4915137;29;20052;-69
2021/10/20 14:34:27;;;;;;;8.60;5.38;;;;;;;;;;4900547;29;20131;-69
2021/10/20 14:37:12;;;;;;;10.10;4.75;;;;;;;;;;4913932;29;20514;-70
2021/10/20 14:39:58;;;;;;;9.32;4.57;;;;;;;;;;4940065;28;20060;-69
2021/10/20 14:42:43;;;;;;;6.57;4.10;;;;;;;;;;4933869;29;20056;-69
2021/10/20 14:45:32;;;;;;;8.90;4.32;;;;;;;;;;4933758;28;20091;-69
2021/10/20 14:48:17;;;;;;;7.63;4.53;;;;;;;;;;4947528;23;20420;-68
2021/10/20 14:51:02;;;;;;;8.45;4.43;;;;;;;;;;4933599;29;20052;-68
2021/10/20 14:53:47;;;;;;;8.38;3.72;;;;;;;;;;4933477;29;20085;-68
2021/10/20 14:56:33;;;;;;;11.73;4.03;;;;;;;;;;4932274;29;20055;-68
2021/10/20 14:59:18;;;;;;;8.57;4.40;;;;;;;;;;4933826;29;20055;-67
2021/10/20 15:02:03;;;;;;;10.25;3.95;;;;;;;;;;4933642;29;20059;-67
2021/10/20 15:04:49;;;;;;;10.57;3.60;;;;;;;;;;4933980;29;20059;-67
2021/10/20 15:07:34;;;;;;;1999.90;999.90;;;;;;;;;;4933525;29;20123;-68
2021/10/20 15:10:23;;;;;;;375.63;349.35;;;;;;;;;;4933577;29;20059;-68
2021/10/20 15:13:09;;;;;;;12.70;8.95;;;;;;;;;;4933134;29;20059;-68
2021/10/20 15:15:54;;;;;;;524.92;228.32;;;;;;;;;;4933115;29;20510;-68
2021/10/20 15:21:43;;;;;;;1999.90;999.90;;;;;;;;;;4933567;29;20520;-69
2021/10/20 15:24:29;;;;;;;1999.90;999.90;;;;;;;;;;4932971;29;20056;-68
2021/10/20 15:27:14;;;;;;;1999.90;999.90;;;;;;;;;;4933073;29;20052;-67
2021/10/20 15:30:00;;;;;;;1999.90;999.90;;;;;;;;;;4931219;29;20056;-68
2021/10/20 15:32:45;;;;;;;1999.90;999.90;;;;;;;;;;4933002;29;20060;-68
2021/10/20 15:35:30;;;;;;;1999.90;999.90;;;;;;;;;;4931723;29;20064;-68
2021/10/20 15:38:15;;;;;;;1999.90;999.90;;;;;;;;;;4932695;29;20059;-68
2021/10/20 15:41:00;;;;;;;1999.90;999.90;;;;;;;;;;4933079;29;20059;-68
2021/10/20 15:43:46;;;;;;;1999.90;999.90;;;;;;;;;;4932802;29;20080;-69
2021/10/20 15:46:31;;;;;;;1999.90;999.90;;;;;;;;;;4931854;29;20064;-68
2021/10/20 15:49:19;;;;;;;1999.90;999.90;;;;;;;;;;4933090;29;20394;-67
2021/10/20 15:52:05;;;;;;;1999.90;999.90;;;;;;;;;;4932654;29;20055;-68
2021/10/20 15:54:50;;;;;;;1999.90;999.90;;;;;;;;;;4932261;29;20797;-68
2021/10/20 15:57:36;;;;;;;1999.90;999.90;;;;;;;;;;4932608;29;20122;-68
2021/10/20 16:00:21;;;;;;;1999.90;999.90;;;;;;;;;;4932672;29;20052;-68
2021/10/20 16:03:07;;;;;;;1999.90;999.90;;;;;;;;;;4932419;29;20549;-68
2021/10/20 16:05:52;;;;;;;1999.90;999.90;;;;;;;;;;4932553;29;20066;-67
2021/10/20 16:08:37;;;;;;;1999.90;999.90;;;;;;;;;;4932679;29;20518;-69
2021/10/20 16:11:22;;;;;;;1999.90;999.90;;;;;;;;;;4922372;29;20126;-67
2021/10/20 16:14:08;;;;;;;1999.90;999.90;;;;;;;;;;4916840;28;20053;-68
2021/10/20 16:16:53;;;;;;;1999.90;999.90;;;;;;;;;;4917953;29;20060;-68